sensor_id;sensor_type;location;lat;lon;timestamp;P1;durP1;ratioP1;P2;durP2;ratioP2
27293;SDS011;14785;52.556;13.430;2023-11-18T00:01:11;115.65;;;108.60;;
27293;SDS011;14785;52.556;13.430;2023-11-18T00:03:37;103.80;;;97.20;;
27293;SDS011;14785;52.556;13.430;2023-11-18T00:06:04;114.68;;;107.60;;
27293;SDS011;14785;52.556;13.430;2023-11-18T00:08:30;111.83;;;105.03;;
27293;SDS011;14785;52.556;13.430;2023-11-18T00:10:57;140.15;;;131.82;;
27293;SDS011;14785;52.556;13.430;2023-11-18T00:13:23;119.17;;;111.83;;
27293;SDS011;14785;52.556;13.430;2023-11-18T00:15:49;97.18;;;90.88;;
27293;SDS011;14785;52.556;13.430;2023-11-18T00:18:14;162.23;;;152.77;;
27293;SDS011;14785;52.556;13.430;2023-11-18T00:20:40;183.48;;;172.25;;
27293;SDS011;14785;52.556;13.430;2023-11-18T00:23:08;126.45;;;118.78;;
27293;SDS011;14785;52.556;13.430;2023-11-18T00:25:33;174.83;;;164.90;;
27293;SDS011;14785;52.556;13.430;2023-11-18T00:28:00;138.52;;;130.40;;
27293;SDS011;14785;52.556;13.430;2023-11-18T00:30:25;195.97;;;184.77;;
27293;SDS011;14785;52.556;13.430;2023-11-18T00:32:53;148.65;;;139.80;;
27293;SDS011;14785;52.556;13.430;2023-11-18T00:35:18;153.73;;;144.70;;
27293;SDS011;14785;52.556;13.430;2023-11-18T00:37:44;129.27;;;121.70;;
27293;SDS011;14785;52.556;13.430;2023-11-18T00:40:09;176.57;;;166.37;;
27293;SDS011;14785;52.556;13.430;2023-11-18T00:42:36;100.85;;;94.43;;
27293;SDS011;14785;52.556;13.430;2023-11-18T00:45:03;179.35;;;168.85;;
27293;SDS011;14785;52.556;13.430;2023-11-18T00:47:29;141.07;;;132.55;;
27293;SDS011;14785;52.556;13.430;2023-11-18T00:49:55;167.95;;;158.30;;
27293;SDS011;14785;52.556;13.430;2023-11-18T00:52:20;133.50;;;125.53;;
27293;SDS011;14785;52.556;13.430;2023-11-18T00:54:46;96.13;;;90.13;;
27293;SDS011;14785;52.556;13.430;2023-11-18T00:57:11;91.57;;;85.70;;
27293;SDS011;14785;52.556;13.430;2023-11-18T00:59:36;115.67;;;108.20;;
27293;SDS011;14785;52.556;13.430;2023-11-18T01:02:06;123.63;;;115.88;;
27293;SDS011;14785;52.556;13.430;2023-11-18T01:04:32;133.03;;;124.87;;
27293;SDS011;14785;52.556;13.430;2023-11-18T01:06:58;111.47;;;104.50;;
27293;SDS011;14785;52.556;13.430;2023-11-18T01:09:23;142.73;;;134.10;;
27293;SDS011;14785;52.556;13.430;2023-11-18T01:11:50;117.10;;;109.43;;
27293;SDS011;14785;52.556;13.430;2023-11-18T01:14:15;127.47;;;119.80;;
27293;SDS011;14785;52.556;13.430;2023-11-18T01:19:08;127.65;;;120.15;;
27293;SDS011;14785;52.556;13.430;2023-11-18T01:21:35;141.77;;;133.40;;
27293;SDS011;14785;52.556;13.430;2023-11-18T01:24:01;127.15;;;119.70;;
27293;SDS011;14785;52.556;13.430;2023-11-18T01:26:27;126.47;;;119.07;;
27293;SDS011;14785;52.556;13.430;2023-11-18T01:28:52;82.73;;;77.23;;
27293;SDS011;14785;52.556;13.430;2023-11-18T01:31:18;112.93;;;106.22;;
27293;SDS011;14785;52.556;13.430;2023-11-18T01:33:43;138.67;;;130.50;;
27293;SDS011;14785;52.556;13.430;2023-11-18T01:36:11;141.10;;;132.73;;
27293;SDS011;14785;52.556;13.430;2023-11-18T01:38:37;143.87;;;135.30;;
27293;SDS011;14785;52.556;13.430;2023-11-18T01:41:06;174.10;;;164.27;;
27293;SDS011;14785;52.556;13.430;2023-11-18T01:43:33;152.70;;;143.38;;
27293;SDS011;14785;52.556;13.430;2023-11-18T01:45:59;143.80;;;135.30;;
27293;SDS011;14785;52.556;13.430;2023-11-18T01:48:31;70.57;;;65.97;;
27293;SDS011;14785;52.556;13.430;2023-11-18T01:50:58;111.75;;;104.32;;
27293;SDS011;14785;52.556;13.430;2023-11-18T01:53:24;105.10;;;98.22;;
27293;SDS011;14785;52.556;13.430;2023-11-18T01:55:51;108.25;;;101.68;;
27293;SDS011;14785;52.556;13.430;2023-11-18T01:58:16;108.67;;;101.97;;
27293;SDS011;14785;52.556;13.430;2023-11-18T02:00:45;100.43;;;93.95;;
27293;SDS011;14785;52.556;13.430;2023-11-18T02:05:37;95.53;;;89.10;;
27293;SDS011;14785;52.556;13.430;2023-11-18T02:08:03;101.18;;;94.63;;
27293;SDS011;14785;52.556;13.430;2023-11-18T02:10:30;120.93;;;113.40;;
27293;SDS011;14785;52.556;13.430;2023-11-18T02:15:31;106.93;;;100.13;;
27293;SDS011;14785;52.556;13.430;2023-11-18T02:17:59;98.53;;;92.22;;
27293;SDS011;14785;52.556;13.430;2023-11-18T02:20:31;93.88;;;87.95;;
27293;SDS011;14785;52.556;13.430;2023-11-18T02:22:58;110.47;;;103.85;;
27293;SDS011;14785;52.556;13.430;2023-11-18T02:25:26;112.80;;;106.00;;
27293;SDS011;14785;52.556;13.430;2023-11-18T02:27:53;103.93;;;97.32;;
27293;SDS011;14785;52.556;13.430;2023-11-18T02:30:19;123.97;;;116.50;;
27293;SDS011;14785;52.556;13.430;2023-11-18T02:35:25;99.47;;;93.13;;
27293;SDS011;14785;52.556;13.430;2023-11-18T02:37:55;101.28;;;94.70;;
27293;SDS011;14785;52.556;13.430;2023-11-18T02:40:32;100.93;;;94.47;;
27293;SDS011;14785;52.556;13.430;2023-11-18T02:43:00;98.85;;;92.65;;
27293;SDS011;14785;52.556;13.430;2023-11-18T02:45:30;95.78;;;89.60;;
27293;SDS011;14785;52.556;13.430;2023-11-18T02:47:57;97.28;;;91.07;;
27293;SDS011;14785;52.556;13.430;2023-11-18T02:50:26;104.63;;;98.05;;
27293;SDS011;14785;52.556;13.430;2023-11-18T02:52:52;114.95;;;107.93;;
27293;SDS011;14785;52.556;13.430;2023-11-18T02:55:21;107.88;;;100.93;;
27293;SDS011;14785;52.556;13.430;2023-11-18T02:57:48;157.50;;;148.32;;
27293;SDS011;14785;52.556;13.430;2023-11-18T03:00:14;102.30;;;95.47;;
27293;SDS011;14785;52.556;13.430;2023-11-18T03:02:47;105.63;;;98.95;;
27293;SDS011;14785;52.556;13.430;2023-11-18T03:07:39;100.15;;;93.72;;
27293;SDS011;14785;52.556;13.430;2023-11-18T03:10:06;102.95;;;95.97;;
27293;SDS011;14785;52.556;13.430;2023-11-18T03:12:37;132.48;;;124.47;;
27293;SDS011;14785;52.556;13.430;2023-11-18T03:15:04;141.35;;;133.00;;
27293;SDS011;14785;52.556;13.430;2023-11-18T03:17:31;157.95;;;148.90;;
27293;SDS011;14785;52.556;13.430;2023-11-18T03:19:56;98.23;;;92.10;;
27293;SDS011;14785;52.556;13.430;2023-11-18T03:22:22;69.83;;;65.27;;
27293;SDS011;14785;52.556;13.430;2023-11-18T03:24:48;91.15;;;85.30;;
27293;SDS011;14785;52.556;13.430;2023-11-18T03:27:14;98.82;;;92.43;;
27293;SDS011;14785;52.556;13.430;2023-11-18T03:29:40;74.87;;;69.77;;
27293;SDS011;14785;52.556;13.430;2023-11-18T03:32:05;84.40;;;78.80;;
27293;SDS011;14785;52.556;13.430;2023-11-18T03:34:34;81.20;;;76.00;;
27293;SDS011;14785;52.556;13.430;2023-11-18T03:37:00;73.80;;;68.57;;
27293;SDS011;14785;52.556;13.430;2023-11-18T03:39:25;93.13;;;87.27;;
27293;SDS011;14785;52.556;13.430;2023-11-18T03:41:52;95.57;;;89.55;;
27293;SDS011;14785;52.556;13.430;2023-11-18T03:44:17;97.23;;;91.20;;
27293;SDS011;14785;52.556;13.430;2023-11-18T03:46:43;71.60;;;66.97;;
27293;SDS011;14785;52.556;13.430;2023-11-18T03:49:08;71.93;;;67.23;;
27293;SDS011;14785;52.556;13.430;2023-11-18T03:51:33;98.57;;;92.47;;
27293;SDS011;14785;52.556;13.430;2023-11-18T03:53:59;76.20;;;71.03;;
27293;SDS011;14785;52.556;13.430;2023-11-18T03:56:24;91.47;;;85.93;;
27293;SDS011;14785;52.556;13.430;2023-11-18T03:58:51;90.70;;;85.10;;
27293;SDS011;14785;52.556;13.430;2023-11-18T04:01:23;154.80;;;146.03;;
27293;SDS011;14785;52.556;13.430;2023-11-18T04:03:52;119.65;;;112.95;;
27293;SDS011;14785;52.556;13.430;2023-11-18T04:06:18;136.07;;;128.27;;
27293;SDS011;14785;52.556;13.430;2023-11-18T04:08:49;111.03;;;104.57;;
27293;SDS011;14785;52.556;13.430;2023-11-18T04:11:15;158.75;;;149.95;;
27293;SDS011;14785;52.556;13.430;2023-11-18T04:13:41;145.90;;;137.70;;
27293;SDS011;14785;52.556;13.430;2023-11-18T04:16:15;108.07;;;101.72;;
27293;SDS011;14785;52.556;13.430;2023-11-18T04:18:44;117.65;;;110.85;;
27293;SDS011;14785;52.556;13.430;2023-11-18T04:21:11;119.05;;;112.13;;
27293;SDS011;14785;52.556;13.430;2023-11-18T04:23:38;99.80;;;93.90;;
27293;SDS011;14785;52.556;13.430;2023-11-18T04:26:06;125.88;;;118.28;;
27293;SDS011;14785;52.556;13.430;2023-11-18T04:28:36;103.63;;;97.47;;
27293;SDS011;14785;52.556;13.430;2023-11-18T04:31:02;104.32;;;98.00;;
27293;SDS011;14785;52.556;13.430;2023-11-18T04:33:28;119.32;;;112.05;;
27293;SDS011;14785;52.556;13.430;2023-11-18T04:38:22;121.85;;;114.32;;
27293;SDS011;14785;52.556;13.430;2023-11-18T04:40:47;116.07;;;108.57;;
27293;SDS011;14785;52.556;13.430;2023-11-18T04:43:13;135.90;;;127.70;;
27293;SDS011;14785;52.556;13.430;2023-11-18T04:45:38;94.83;;;88.60;;
27293;SDS011;14785;52.556;13.430;2023-11-18T04:48:07;99.35;;;92.93;;
27293;SDS011;14785;52.556;13.430;2023-11-18T04:50:32;97.73;;;91.43;;
27293;SDS011;14785;52.556;13.430;2023-11-18T04:52:59;91.00;;;85.28;;
27293;SDS011;14785;52.556;13.430;2023-11-18T04:55:25;73.07;;;67.87;;
27293;SDS011;14785;52.556;13.430;2023-11-18T04:57:53;97.35;;;91.13;;
27293;SDS011;14785;52.556;13.430;2023-11-18T05:00:19;71.07;;;66.22;;
27293;SDS011;14785;52.556;13.430;2023-11-18T05:02:47;88.32;;;82.45;;
27293;SDS011;14785;52.556;13.430;2023-11-18T05:05:13;96.90;;;90.57;;
27293;SDS011;14785;52.556;13.430;2023-11-18T05:07:42;119.22;;;111.57;;
27293;SDS011;14785;52.556;13.430;2023-11-18T05:10:08;70.25;;;65.38;;
27293;SDS011;14785;52.556;13.430;2023-11-18T05:12:35;97.63;;;91.55;;
27293;SDS011;14785;52.556;13.430;2023-11-18T05:15:01;110.30;;;103.20;;
27293;SDS011;14785;52.556;13.430;2023-11-18T05:17:29;113.72;;;106.75;;
27293;SDS011;14785;52.556;13.430;2023-11-18T05:19:55;115.00;;;107.50;;
27293;SDS011;14785;52.556;13.430;2023-11-18T05:22:20;111.43;;;104.23;;
27293;SDS011;14785;52.556;13.430;2023-11-18T05:24:46;115.33;;;107.50;;
27293;SDS011;14785;52.556;13.430;2023-11-18T05:27:13;115.25;;;107.72;;
27293;SDS011;14785;52.556;13.430;2023-11-18T05:29:39;106.78;;;99.68;;
27293;SDS011;14785;52.556;13.430;2023-11-18T05:32:06;106.00;;;98.97;;
27293;SDS011;14785;52.556;13.430;2023-11-18T05:34:32;102.82;;;95.95;;
27293;SDS011;14785;52.556;13.430;2023-11-18T05:37:00;109.88;;;102.68;;
27293;SDS011;14785;52.556;13.430;2023-11-18T05:39:26;113.80;;;106.50;;
27293;SDS011;14785;52.556;13.430;2023-11-18T05:41:53;106.82;;;99.93;;
27293;SDS011;14785;52.556;13.430;2023-11-18T05:44:20;107.90;;;100.93;;
27293;SDS011;14785;52.556;13.430;2023-11-18T05:46:55;105.25;;;98.28;;
27293;SDS011;14785;52.556;13.430;2023-11-18T05:49:21;120.88;;;112.82;;
27293;SDS011;14785;52.556;13.430;2023-11-18T05:51:48;148.93;;;139.63;;
27293;SDS011;14785;52.556;13.430;2023-11-18T05:54:14;125.63;;;117.53;;
27293;SDS011;14785;52.556;13.430;2023-11-18T05:56:40;100.00;;;93.13;;
27293;SDS011;14785;52.556;13.430;2023-11-18T05:59:05;88.57;;;82.70;;
27293;SDS011;14785;52.556;13.430;2023-11-18T06:01:31;87.47;;;81.43;;
27293;SDS011;14785;52.556;13.430;2023-11-18T06:03:56;100.60;;;93.80;;
27293;SDS011;14785;52.556;13.430;2023-11-18T06:06:22;142.65;;;133.50;;
27293;SDS011;14785;52.556;13.430;2023-11-18T06:08:48;136.60;;;127.55;;
27293;SDS011;14785;52.556;13.430;2023-11-18T06:11:14;143.02;;;133.68;;
27293;SDS011;14785;52.556;13.430;2023-11-18T06:16:12;244.43;;;230.70;;
27293;SDS011;14785;52.556;13.430;2023-11-18T06:18:42;247.32;;;233.23;;
27293;SDS011;14785;52.556;13.430;2023-11-18T06:21:20;214.52;;;201.93;;
27293;SDS011;14785;52.556;13.430;2023-11-18T06:23:50;111.25;;;103.78;;
27293;SDS011;14785;52.556;13.430;2023-11-18T06:26:16;82.90;;;77.05;;
27293;SDS011;14785;52.556;13.430;2023-11-18T06:28:43;107.85;;;100.15;;
27293;SDS011;14785;52.556;13.430;2023-11-18T06:31:09;98.78;;;91.50;;
27293;SDS011;14785;52.556;13.430;2023-11-18T06:33:40;123.82;;;115.18;;
27293;SDS011;14785;52.556;13.430;2023-11-18T06:36:17;171.73;;;160.77;;
27293;SDS011;14785;52.556;13.430;2023-11-18T06:38:47;204.50;;;192.15;;
27293;SDS011;14785;52.556;13.430;2023-11-18T06:41:16;182.48;;;171.15;;
27293;SDS011;14785;52.556;13.430;2023-11-18T06:43:43;73.65;;;67.50;;
27293;SDS011;14785;52.556;13.430;2023-11-18T06:46:19;113.63;;;105.50;;
27293;SDS011;14785;52.556;13.430;2023-11-18T06:48:54;99.22;;;91.95;;
27293;SDS011;14785;52.556;13.430;2023-11-18T06:51:20;65.90;;;59.80;;
27293;SDS011;14785;52.556;13.430;2023-11-18T06:53:53;59.60;;;54.50;;
27293;SDS011;14785;52.556;13.430;2023-11-18T06:56:26;67.85;;;62.35;;
27293;SDS011;14785;52.556;13.430;2023-11-18T06:58:52;76.93;;;70.55;;
27293;SDS011;14785;52.556;13.430;2023-11-18T07:01:18;82.70;;;76.50;;
27293;SDS011;14785;52.556;13.430;2023-11-18T07:03:45;91.25;;;84.78;;
27293;SDS011;14785;52.556;13.430;2023-11-18T07:06:16;88.28;;;81.82;;
27293;SDS011;14785;52.556;13.430;2023-11-18T07:08:48;79.40;;;73.22;;
27293;SDS011;14785;52.556;13.430;2023-11-18T07:11:16;176.57;;;165.50;;
27293;SDS011;14785;52.556;13.430;2023-11-18T07:13:42;129.20;;;120.22;;
27293;SDS011;14785;52.556;13.430;2023-11-18T07:18:37;130.05;;;121.18;;
27293;SDS011;14785;52.556;13.430;2023-11-18T07:21:03;120.38;;;112.45;;
27293;SDS011;14785;52.556;13.430;2023-11-18T07:23:30;118.22;;;109.57;;
27293;SDS011;14785;52.556;13.430;2023-11-18T07:25:56;142.93;;;133.35;;
27293;SDS011;14785;52.556;13.430;2023-11-18T07:28:22;85.20;;;77.90;;
27293;SDS011;14785;52.556;13.430;2023-11-18T07:30:48;64.43;;;58.30;;
27293;SDS011;14785;52.556;13.430;2023-11-18T07:33:14;91.77;;;83.77;;
27293;SDS011;14785;52.556;13.430;2023-11-18T07:35:40;88.90;;;80.97;;
27293;SDS011;14785;52.556;13.430;2023-11-18T07:38:05;68.53;;;61.47;;
27293;SDS011;14785;52.556;13.430;2023-11-18T07:40:32;124.03;;;114.15;;
27293;SDS011;14785;52.556;13.430;2023-11-18T07:45:26;125.35;;;116.00;;
27293;SDS011;14785;52.556;13.430;2023-11-18T07:47:54;117.18;;;108.10;;
27293;SDS011;14785;52.556;13.430;2023-11-18T07:50:20;71.93;;;65.30;;
27293;SDS011;14785;52.556;13.430;2023-11-18T07:52:47;75.72;;;68.80;;
27293;SDS011;14785;52.556;13.430;2023-11-18T07:55:14;97.80;;;89.78;;
27293;SDS011;14785;52.556;13.430;2023-11-18T07:57:40;85.68;;;78.05;;
27293;SDS011;14785;52.556;13.430;2023-11-18T08:00:07;93.40;;;85.93;;
27293;SDS011;14785;52.556;13.430;2023-11-18T08:02:36;73.88;;;67.68;;
27293;SDS011;14785;52.556;13.430;2023-11-18T08:05:05;88.15;;;81.50;;
27293;SDS011;14785;52.556;13.430;2023-11-18T08:07:40;97.07;;;89.47;;
27293;SDS011;14785;52.556;13.430;2023-11-18T08:10:08;112.28;;;104.47;;
27293;SDS011;14785;52.556;13.430;2023-11-18T08:12:38;171.63;;;161.25;;
27293;SDS011;14785;52.556;13.430;2023-11-18T08:15:04;122.15;;;114.28;;
27293;SDS011;14785;52.556;13.430;2023-11-18T08:17:31;132.15;;;123.90;;
27293;SDS011;14785;52.556;13.430;2023-11-18T08:19:57;141.03;;;132.27;;
27293;SDS011;14785;52.556;13.430;2023-11-18T08:22:22;273.03;;;257.40;;
27293;SDS011;14785;52.556;13.430;2023-11-18T08:24:49;128.57;;;120.47;;
27293;SDS011;14785;52.556;13.430;2023-11-18T08:27:15;132.75;;;124.18;;
27293;SDS011;14785;52.556;13.430;2023-11-18T08:29:41;156.55;;;146.32;;
27293;SDS011;14785;52.556;13.430;2023-11-18T08:32:09;94.63;;;88.22;;
27293;SDS011;14785;52.556;13.430;2023-11-18T08:34:37;86.75;;;80.82;;
27293;SDS011;14785;52.556;13.430;2023-11-18T08:37:06;98.18;;;91.22;;
27293;SDS011;14785;52.556;13.430;2023-11-18T08:39:31;109.78;;;102.68;;
27293;SDS011;14785;52.556;13.430;2023-11-18T08:41:57;154.07;;;144.27;;
27293;SDS011;14785;52.556;13.430;2023-11-18T08:44:24;170.68;;;160.32;;
27293;SDS011;14785;52.556;13.430;2023-11-18T08:46:52;153.15;;;143.88;;
27293;SDS011;14785;52.556;13.430;2023-11-18T08:49:18;241.10;;;227.83;;
27293;SDS011;14785;52.556;13.430;2023-11-18T08:51:49;281.30;;;266.40;;
27293;SDS011;14785;52.556;13.430;2023-11-18T08:54:21;213.63;;;201.73;;
27293;SDS011;14785;52.556;13.430;2023-11-18T08:57:13;110.22;;;103.38;;
27293;SDS011;14785;52.556;13.430;2023-11-18T08:59:51;63.35;;;58.95;;
27293;SDS011;14785;52.556;13.430;2023-11-18T09:02:19;50.50;;;46.78;;
27293;SDS011;14785;52.556;13.430;2023-11-18T09:04:51;78.93;;;73.90;;
27293;SDS011;14785;52.556;13.430;2023-11-18T09:07:20;41.60;;;38.55;;
27293;SDS011;14785;52.556;13.430;2023-11-18T09:14:39;59.00;;;54.83;;
27293;SDS011;14785;52.556;13.430;2023-11-18T09:17:08;46.42;;;43.22;;
27293;SDS011;14785;52.556;13.430;2023-11-18T09:19:34;40.75;;;37.63;;
27293;SDS011;14785;52.556;13.430;2023-11-18T09:22:00;32.70;;;30.23;;
27293;SDS011;14785;52.556;13.430;2023-11-18T09:24:25;38.70;;;35.83;;
27293;SDS011;14785;52.556;13.430;2023-11-18T09:26:50;33.23;;;30.67;;
27293;SDS011;14785;52.556;13.430;2023-11-18T09:29:19;49.03;;;45.50;;
27293;SDS011;14785;52.556;13.430;2023-11-18T09:31:49;36.08;;;33.33;;
27293;SDS011;14785;52.556;13.430;2023-11-18T09:34:15;37.40;;;34.28;;
27293;SDS011;14785;52.556;13.430;2023-11-18T09:36:45;37.75;;;34.80;;
27293;SDS011;14785;52.556;13.430;2023-11-18T09:39:10;32.25;;;29.33;;
27293;SDS011;14785;52.556;13.430;2023-11-18T09:41:54;28.10;;;25.80;;
27293;SDS011;14785;52.556;13.430;2023-11-18T09:44:21;29.20;;;26.88;;
27293;SDS011;14785;52.556;13.430;2023-11-18T09:46:50;31.40;;;28.70;;
27293;SDS011;14785;52.556;13.430;2023-11-18T09:49:29;31.98;;;29.13;;
27293;SDS011;14785;52.556;13.430;2023-11-18T09:52:04;33.35;;;30.40;;
27293;SDS011;14785;52.556;13.430;2023-11-18T09:55:33;25.52;;;23.35;;
27293;SDS011;14785;52.556;13.430;2023-11-18T10:00:06;52.15;;;48.40;;
27293;SDS011;14785;52.556;13.430;2023-11-18T10:02:45;45.25;;;41.95;;
27293;SDS011;14785;52.556;13.430;2023-11-18T10:05:11;38.78;;;35.85;;
27293;SDS011;14785;52.556;13.430;2023-11-18T10:07:40;32.50;;;29.88;;
27293;SDS011;14785;52.556;13.430;2023-11-18T10:10:07;36.50;;;33.80;;
27293;SDS011;14785;52.556;13.430;2023-11-18T10:12:52;43.55;;;40.63;;
27293;SDS011;14785;52.556;13.430;2023-11-18T10:15:21;46.72;;;43.45;;
27293;SDS011;14785;52.556;13.430;2023-11-18T10:17:50;47.58;;;44.22;;
27293;SDS011;14785;52.556;13.430;2023-11-18T10:23:07;40.67;;;37.72;;
27293;SDS011;14785;52.556;13.430;2023-11-18T10:25:36;43.40;;;40.65;;
27293;SDS011;14785;52.556;13.430;2023-11-18T10:28:07;23.77;;;21.77;;
27293;SDS011;14785;52.556;13.430;2023-11-18T10:30:44;30.48;;;28.00;;
27293;SDS011;14785;52.556;13.430;2023-11-18T10:33:16;28.23;;;26.08;;
27293;SDS011;14785;52.556;13.430;2023-11-18T10:35:52;35.33;;;32.90;;
27293;SDS011;14785;52.556;13.430;2023-11-18T10:38:20;42.63;;;39.80;;
27293;SDS011;14785;52.556;13.430;2023-11-18T10:40:51;62.97;;;59.30;;
27293;SDS011;14785;52.556;13.430;2023-11-18T10:43:22;22.55;;;20.50;;
27293;SDS011;14785;52.556;13.430;2023-11-18T10:51:18;43.92;;;40.85;;
27293;SDS011;14785;52.556;13.430;2023-11-18T10:53:48;35.90;;;33.38;;
27293;SDS011;14785;52.556;13.430;2023-11-18T10:56:37;47.45;;;44.30;;
27293;SDS011;14785;52.556;13.430;2023-11-18T10:59:06;58.30;;;54.67;;
27293;SDS011;14785;52.556;13.430;2023-11-18T11:04:07;25.25;;;23.20;;
27293;SDS011;14785;52.556;13.430;2023-11-18T11:06:35;26.90;;;24.30;;
27293;SDS011;14785;52.556;13.430;2023-11-18T11:09:06;45.08;;;41.80;;
27293;SDS011;14785;52.556;13.430;2023-11-18T11:11:44;35.97;;;33.33;;
27293;SDS011;14785;52.556;13.430;2023-11-18T11:14:14;37.90;;;35.25;;
27293;SDS011;14785;52.556;13.430;2023-11-18T11:17:17;31.15;;;28.80;;
27293;SDS011;14785;52.556;13.430;2023-11-18T11:19:48;35.38;;;32.95;;
27293;SDS011;14785;52.556;13.430;2023-11-18T11:22:33;86.35;;;80.97;;
27293;SDS011;14785;52.556;13.430;2023-11-18T11:28:15;71.05;;;66.38;;
27293;SDS011;14785;52.556;13.430;2023-11-18T11:30:58;69.28;;;65.20;;
27293;SDS011;14785;52.556;13.430;2023-11-18T11:33:29;104.03;;;97.95;;
27293;SDS011;14785;52.556;13.430;2023-11-18T11:36:05;62.50;;;58.47;;
27293;SDS011;14785;52.556;13.430;2023-11-18T11:38:36;53.95;;;50.25;;
27293;SDS011;14785;52.556;13.430;2023-11-18T11:41:02;57.15;;;53.30;;
27293;SDS011;14785;52.556;13.430;2023-11-18T11:43:30;65.80;;;61.58;;
27293;SDS011;14785;52.556;13.430;2023-11-18T11:45:59;62.30;;;58.08;;
27293;SDS011;14785;52.556;13.430;2023-11-18T11:48:32;49.45;;;46.10;;
27293;SDS011;14785;52.556;13.430;2023-11-18T11:56:44;43.40;;;40.42;;
27293;SDS011;14785;52.556;13.430;2023-11-18T11:59:18;26.17;;;23.90;;
27293;SDS011;14785;52.556;13.430;2023-11-18T12:02:03;30.13;;;27.70;;
27293;SDS011;14785;52.556;13.430;2023-11-18T12:07:07;34.40;;;31.70;;
27293;SDS011;14785;52.556;13.430;2023-11-18T12:09:34;46.78;;;43.17;;
27293;SDS011;14785;52.556;13.430;2023-11-18T12:12:03;45.33;;;41.67;;
27293;SDS011;14785;52.556;13.430;2023-11-18T12:14:48;40.65;;;37.33;;
27293;SDS011;14785;52.556;13.430;2023-11-18T12:17:21;41.15;;;37.47;;
27293;SDS011;14785;52.556;13.430;2023-11-18T12:19:48;28.95;;;26.17;;
27293;SDS011;14785;52.556;13.430;2023-11-18T12:28:05;28.30;;;25.75;;
27293;SDS011;14785;52.556;13.430;2023-11-18T12:47:02;22.85;;;20.42;;
27293;SDS011;14785;52.556;13.430;2023-11-18T12:49:47;23.02;;;20.83;;
27293;SDS011;14785;52.556;13.430;2023-11-18T12:52:20;26.38;;;23.85;;
27293;SDS011;14785;52.556;13.430;2023-11-18T12:54:47;23.25;;;21.15;;
27293;SDS011;14785;52.556;13.430;2023-11-18T12:57:22;30.38;;;27.83;;
27293;SDS011;14785;52.556;13.430;2023-11-18T12:59:56;22.38;;;20.25;;
27293;SDS011;14785;52.556;13.430;2023-11-18T13:02:21;32.43;;;29.90;;
27293;SDS011;14785;52.556;13.430;2023-11-18T13:04:48;24.45;;;22.25;;
27293;SDS011;14785;52.556;13.430;2023-11-18T13:07:17;25.33;;;23.23;;
27293;SDS011;14785;52.556;13.430;2023-11-18T13:09:44;32.80;;;30.23;;
27293;SDS011;14785;52.556;13.430;2023-11-18T13:12:11;29.27;;;27.00;;
27293;SDS011;14785;52.556;13.430;2023-11-18T13:14:40;35.33;;;32.85;;
27293;SDS011;14785;52.556;13.430;2023-11-18T13:17:10;33.22;;;30.67;;
27293;SDS011;14785;52.556;13.430;2023-11-18T13:19:43;32.55;;;30.27;;
27293;SDS011;14785;52.556;13.430;2023-11-18T13:22:13;39.58;;;36.78;;
27293;SDS011;14785;52.556;13.430;2023-11-18T13:24:40;49.30;;;46.10;;
27293;SDS011;14785;52.556;13.430;2023-11-18T13:27:09;32.92;;;30.58;;
27293;SDS011;14785;52.556;13.430;2023-11-18T13:29:36;32.10;;;29.58;;
27293;SDS011;14785;52.556;13.430;2023-11-18T13:32:04;26.02;;;23.70;;
27293;SDS011;14785;52.556;13.430;2023-11-18T13:34:32;18.20;;;16.15;;
27293;SDS011;14785;52.556;13.430;2023-11-18T13:36:59;25.27;;;22.67;;
27293;SDS011;14785;52.556;13.430;2023-11-18T13:39:25;37.80;;;34.72;;
27293;SDS011;14785;52.556;13.430;2023-11-18T13:41:54;39.63;;;36.28;;
27293;SDS011;14785;52.556;13.430;2023-11-18T13:47:03;45.97;;;42.42;;
27293;SDS011;14785;52.556;13.430;2023-11-18T13:49:31;38.85;;;34.83;;
27293;SDS011;14785;52.556;13.430;2023-11-18T13:51:58;32.53;;;29.73;;
27293;SDS011;14785;52.556;13.430;2023-11-18T13:54:25;31.20;;;28.67;;
27293;SDS011;14785;52.556;13.430;2023-11-18T13:56:58;28.15;;;25.70;;
27293;SDS011;14785;52.556;13.430;2023-11-18T13:59:25;43.90;;;40.90;;
27293;SDS011;14785;52.556;13.430;2023-11-18T14:01:53;21.15;;;19.05;;
27293;SDS011;14785;52.556;13.430;2023-11-18T14:04:22;14.45;;;13.10;;
27293;SDS011;14785;52.556;13.430;2023-11-18T14:06:51;13.95;;;12.73;;
27293;SDS011;14785;52.556;13.430;2023-11-18T14:09:20;25.05;;;23.15;;
27293;SDS011;14785;52.556;13.430;2023-11-18T14:11:50;15.23;;;13.73;;
27293;SDS011;14785;52.556;13.430;2023-11-18T14:14:16;18.55;;;16.73;;
27293;SDS011;14785;52.556;13.430;2023-11-18T14:16:42;14.40;;;13.05;;
27293;SDS011;14785;52.556;13.430;2023-11-18T14:19:08;22.63;;;20.90;;
27293;SDS011;14785;52.556;13.430;2023-11-18T14:21:36;42.30;;;39.40;;
27293;SDS011;14785;52.556;13.430;2023-11-18T14:24:01;49.67;;;46.27;;
27293;SDS011;14785;52.556;13.430;2023-11-18T14:28:54;38.40;;;35.45;;
27293;SDS011;14785;52.556;13.430;2023-11-18T14:31:20;27.33;;;24.60;;
27293;SDS011;14785;52.556;13.430;2023-11-18T14:33:47;23.05;;;20.83;;
27293;SDS011;14785;52.556;13.430;2023-11-18T14:36:13;22.15;;;20.05;;
27293;SDS011;14785;52.556;13.430;2023-11-18T14:38:40;28.02;;;25.50;;
27293;SDS011;14785;52.556;13.430;2023-11-18T14:41:06;32.30;;;29.60;;
27293;SDS011;14785;52.556;13.430;2023-11-18T14:43:33;29.58;;;27.13;;
27293;SDS011;14785;52.556;13.430;2023-11-18T14:45:59;36.20;;;33.38;;
27293;SDS011;14785;52.556;13.430;2023-11-18T14:48:24;64.70;;;60.47;;
27293;SDS011;14785;52.556;13.430;2023-11-18T14:50:50;79.67;;;74.53;;
27293;SDS011;14785;52.556;13.430;2023-11-18T14:53:15;47.57;;;43.57;;
27293;SDS011;14785;52.556;13.430;2023-11-18T14:55:41;59.47;;;55.23;;
27293;SDS011;14785;52.556;13.430;2023-11-18T14:58:07;54.28;;;50.28;;
27293;SDS011;14785;52.556;13.430;2023-11-18T15:00:32;47.27;;;43.40;;
27293;SDS011;14785;52.556;13.430;2023-11-18T15:02:59;50.58;;;46.03;;
27293;SDS011;14785;52.556;13.430;2023-11-18T15:05:25;44.65;;;40.70;;
27293;SDS011;14785;52.556;13.430;2023-11-18T15:07:55;26.27;;;23.63;;
27293;SDS011;14785;52.556;13.430;2023-11-18T15:10:23;26.63;;;23.80;;
27293;SDS011;14785;52.556;13.430;2023-11-18T15:12:51;37.80;;;34.17;;
27293;SDS011;14785;52.556;13.430;2023-11-18T15:15:28;40.58;;;36.75;;
27293;SDS011;14785;52.556;13.430;2023-11-18T15:17:59;35.33;;;32.05;;
27293;SDS011;14785;52.556;13.430;2023-11-18T15:20:28;36.92;;;33.72;;
27293;SDS011;14785;52.556;13.430;2023-11-18T15:22:54;89.75;;;83.80;;
27293;SDS011;14785;52.556;13.430;2023-11-18T15:25:19;62.07;;;57.40;;